Time;durP1;ratioP1;P1;durP2;ratioP2;P2;SDS_P1;SDS_P2;PMS_P1;PMS_P2;Temp;Humidity;BMP_temperature;BMP_pressure;BME280_temperature;BME280_humidity;BME280_pressure;Samples;Min_cycle;Max_cycle;Signal;HPM_P1;HPM_P2
2024/02/24 00:00:31;;;;;;;2.80;0.73;;;;;;;4.46;96.91;98859.34;5186643;28;20029;-74
2024/02/24 00:03:01;;;;;;;6.03;1.10;;;;;;;4.41;97.02;98865.59;5187640;28;20029;-74
2024/02/24 00:05:31;;;;;;;5.80;0.95;;;;;;;4.45;97.08;98864.59;5187455;28;20065;-74
2024/02/24 00:08:02;;;;;;;3.67;0.80;;;;;;;4.44;97.62;98874.09;5178767;28;20040;-74
2024/02/24 00:10:33;;;;;;;3.83;1.00;;;;;;;4.45;97.86;98873.19;5187663;28;20025;-74
2024/02/24 00:13:03;;;;;;;10.50;1.10;;;;;;;4.36;97.52;98875.28;5186894;28;20021;-74
2024/02/24 00:15:34;;;;;;;3.40;0.75;;;;;;;4.42;97.47;98870.72;5176277;28;20394;-74
2024/02/24 00:18:04;;;;;;;5.18;0.90;;;;;;;4.36;97.29;98870.13;5185239;28;20025;-74
2024/02/24 00:20:34;;;;;;;3.63;0.85;;;;;;;4.31;97.73;98862.53;5187919;28;20061;-75
2024/02/24 00:23:04;;;;;;;1.90;0.77;;;;;;;4.29;97.63;98876.44;5187184;28;20029;-74
2024/02/24 00:25:35;;;;;;;5.53;1.10;;;;;;;4.26;97.55;98868.81;5183060;28;20030;-74
2024/02/24 00:28:07;;;;;;;5.68;1.10;;;;;;;4.24;98.16;98868.00;5177631;28;20056;-73
2024/02/24 00:30:37;;;;;;;5.15;1.00;;;;;;;4.36;97.62;98870.13;5189091;28;20041;-74
2024/02/24 00:33:07;;;;;;;10.07;1.27;;;;;;;4.30;97.61;98855.69;5175711;28;20025;-74
2024/02/24 00:35:39;;;;;;;4.18;0.90;;;;;;;4.31;97.47;98866.88;5185769;28;20403;-74
2024/02/24 00:38:09;;;;;;;5.88;0.90;;;;;;;4.36;97.71;98860.63;5185916;28;20124;-74
2024/02/24 00:40:39;;;;;;;3.50;1.15;;;;;;;4.21;97.72;98865.53;5188902;28;20185;-74
2024/02/24 00:43:09;;;;;;;3.45;0.85;;;;;;;4.13;97.20;98858.06;5186884;28;20029;-74
2024/02/24 00:45:40;;;;;;;3.55;1.08;;;;;;;4.16;98.26;98868.28;5176823;28;20488;-74
2024/02/24 00:48:10;;;;;;;4.10;1.15;;;;;;;4.13;98.20;98864.97;5175041;28;20084;-74
2024/02/24 00:50:40;;;;;;;6.05;1.25;;;;;;;4.02;97.70;98870.53;5188296;28;20387;-74
2024/02/24 00:53:11;;;;;;;2.58;1.00;;;;;;;4.11;98.36;98869.38;5176275;28;20604;-75
2024/02/24 00:55:41;;;;;;;5.65;0.93;;;;;;;4.07;98.09;98860.88;5185525;28;20072;-74
2024/02/24 00:58:11;;;;;;;7.15;1.45;;;;;;;4.07;97.80;98863.47;5184602;28;20040;-75
2024/02/24 01:00:42;;;;;;;2.80;0.80;;;;;;;4.05;97.86;98870.44;5186539;28;20047;-74
2024/02/24 01:03:12;;;;;;;4.35;1.00;;;;;;;3.94;98.86;98869.97;5183129;28;20511;-74
2024/02/24 01:05:44;;;;;;;6.00;1.20;;;;;;;3.86;99.71;98874.59;5186256;28;20124;-74
2024/02/24 01:08:14;;;;;;;3.97;0.90;;;;;;;3.88;100.00;98866.75;5160124;28;20046;-74
2024/02/24 01:10:45;;;;;;;4.97;1.13;;;;;;;3.83;100.00;98864.38;5180548;28;20055;-74
2024/02/24 01:13:16;;;;;;;3.47;0.80;;;;;;;3.85;100.00;98866.88;5184642;28;20037;-74
2024/02/24 01:15:46;;;;;;;3.20;0.98;;;;;;;3.83;100.00;98873.84;5188477;28;20438;-74
2024/02/24 01:18:16;;;;;;;5.35;1.10;;;;;;;3.79;100.00;98877.44;5184728;28;20166;-74
2024/02/24 01:20:48;;;;;;;4.45;0.85;;;;;;;3.83;100.00;98876.44;5188755;28;20105;-74
2024/02/24 01:23:18;;;;;;;2.35;0.80;;;;;;;3.81;100.00;98876.47;5171002;28;20037;-75
2024/02/24 01:25:48;;;;;;;1.17;0.80;;;;;;;3.89;100.00;98878.78;5187255;28;20387;-74
2024/02/24 01:28:20;;;;;;;7.55;0.98;;;;;;;3.85;100.00;98877.22;5183069;28;20266;-74
2024/02/24 01:30:50;;;;;;;5.32;1.33;;;;;;;3.84;100.00;98878.09;5179411;28;20510;-74
2024/02/24 01:33:20;;;;;;;3.33;0.90;;;;;;;3.88;100.00;98872.78;5184291;28;20034;-74
2024/02/24 01:35:50;;;;;;;5.50;1.00;;;;;;;3.75;99.71;98868.13;5181343;28;20509;-74
2024/02/24 01:38:21;;;;;;;5.63;1.20;;;;;;;3.80;100.00;98867.03;5177018;28;20036;-74
2024/02/24 01:40:51;;;;;;;4.68;1.50;;;;;;;3.83;99.51;98866.09;5193555;28;20398;-74
2024/02/24 01:43:25;;;;;;;6.53;1.23;;;;;;;3.80;100.00;98867.03;5188459;28;20048;-74
2024/02/24 01:45:56;;;;;;;8.25;1.00;;;;;;;3.73;100.00;98872.47;5186821;28;20074;-74
2024/02/24 01:48:27;;;;;;;6.18;1.35;;;;;;;3.67;100.00;98862.38;5179022;28;20030;-74
2024/02/24 01:50:58;;;;;;;2.97;1.00;;;;;;;3.72;100.00;98863.91;5180781;28;20386;-75
2024/02/24 01:53:31;;;;;;;3.25;1.00;;;;;;;3.65;100.00;98859.81;5189042;28;20815;-74
2024/02/24 01:56:06;;;;;;;3.85;1.00;;;;;;;3.71;100.00;98856.19;5188827;28;20048;-74
2024/02/24 01:58:36;;;;;;;;;;;;;;;3.81;100.00;98858.38;5190225;28;20022;-74
2024/02/24 02:01:07;;;;;;;2.15;0.60;;;;;;;3.76;100.00;98857.72;5189764;28;19919;-74
2024/02/24 02:03:37;;;;;;;5.47;0.90;;;;;;;3.81;100.00;98850.63;5187454;28;20036;-74
2024/02/24 02:06:08;;;;;;;4.38;1.20;;;;;;;3.81;100.00;98850.63;5188709;28;20038;-74
2024/02/24 02:08:38;;;;;;;5.43;0.80;;;;;;;3.92;100.00;98851.09;5188016;28;20399;-74
2024/02/24 02:11:11;;;;;;;4.35;0.82;;;;;;;3.95;99.45;98853.56;5188924;28;20030;-75
2024/02/24 02:13:42;;;;;;;3.30;1.10;;;;;;;3.98;99.80;98852.63;5188707;28;20461;-75
2024/02/24 02:16:12;;;;;;;2.75;1.40;;;;;;;4.08;99.04;98847.06;5188277;28;20087;-73
2024/02/24 02:18:42;;;;;;;3.72;0.90;;;;;;;4.08;98.34;98849.63;5187369;28;20109;-75
2024/02/24 02:21:15;;;;;;;4.88;1.05;;;;;;;4.16;97.70;98837.25;5188293;28;20308;-74
2024/02/24 02:23:45;;;;;;;3.80;1.13;;;;;;;4.24;97.69;98847.31;5188010;28;20018;-74
2024/02/24 02:26:17;;;;;;;3.70;0.90;;;;;;;4.30;97.03;98842.75;5186825;28;20517;-74
2024/02/24 02:28:48;;;;;;;4.57;0.82;;;;;;;4.35;96.83;98837.41;5185699;28;20030;-74
2024/02/24 02:31:19;;;;;;;3.28;0.75;;;;;;;4.32;96.01;98843.53;5177916;28;20180;-74
2024/02/24 02:33:49;;;;;;;3.33;0.88;;;;;;;4.28;95.54;98836.81;5186702;28;20029;-75
2024/02/24 02:36:19;;;;;;;2.63;0.75;;;;;;;4.27;95.77;98840.28;5189138;28;20029;-74
2024/02/24 02:38:50;;;;;;;3.78;0.80;;;;;;;4.33;95.67;98834.88;5185986;28;20483;-74
2024/02/24 02:41:20;;;;;;;3.72;0.70;;;;;;;4.27;94.98;98839.47;5190337;28;20061;-74
2024/02/24 02:43:50;;;;;;;3.78;1.00;;;;;;;4.10;95.93;98841.84;5173641;28;20018;-74
2024/02/24 02:46:20;;;;;;;4.38;1.00;;;;;;;4.13;95.42;98842.53;5188630;28;20030;-75
2024/02/24 02:48:51;;;;;;;2.72;0.68;;;;;;;4.14;95.89;98846.81;5189503;28;20033;-75
2024/02/24 02:51:21;;;;;;;3.72;0.95;;;;;;;4.10;96.45;98841.84;5186434;28;20522;-74
2024/02/24 02:53:52;;;;;;;4.20;1.20;;;;;;;4.07;97.27;98844.50;5186185;28;20026;-74
2024/02/24 02:56:22;;;;;;;3.28;0.85;;;;;;;3.99;96.95;98847.38;5186577;28;20974;-74
2024/02/24 02:58:53;;;;;;;6.53;1.90;;;;;;;4.00;97.42;98850.81;5181013;28;20184;-74
2024/02/24 03:01:23;;;;;;;2.95;0.88;;;;;;;3.91;97.45;98845.97;5175058;28;20029;-74
2024/02/24 03:03:54;;;;;;;3.10;0.80;;;;;;;3.94;97.60;98851.06;5176400;28;20117;-74
2024/02/24 03:06:25;;;;;;;5.95;1.02;;;;;;;3.94;97.79;98841.56;5188580;28;20038;-74
2024/02/24 03:08:55;;;;;;;2.40;0.88;;;;;;;3.89;98.25;98848.63;5186914;28;20398;-74
2024/02/24 03:11:25;;;;;;;6.45;0.88;;;;;;;3.84;97.85;98845.38;5186702;28;20032;-74
2024/02/24 03:13:55;;;;;;;6.13;1.42;;;;;;;3.90;98.26;98855.50;5187675;28;20049;-74
2024/02/24 03:16:26;;;;;;;2.38;0.75;;;;;;;3.94;98.00;98845.88;5188416;28;20032;-75
2024/02/24 03:18:56;;;;;;;3.65;0.90;;;;;;;3.93;98.33;98850.19;5186399;28;20514;-74
2024/02/24 03:21:31;;;;;;;4.80;1.08;;;;;;;3.89;97.94;98864.13;5191342;28;20033;-74
2024/02/24 03:24:02;;;;;;;4.88;1.33;;;;;;;3.84;97.61;98857.44;5194555;28;20061;-74
2024/02/24 03:26:32;;;;;;;6.57;0.70;;;;;;;3.74;96.60;98864.69;5185168;28;20108;-74
2024/02/24 03:29:02;;;;;;;3.53;1.00;;;;;;;3.78;98.54;98865.44;5186667;28;20084;-74
2024/02/24 03:31:33;;;;;;;2.65;0.65;;;;;;;3.74;98.50;98867.25;5188271;28;20030;-75
2024/02/24 03:34:03;;;;;;;4.03;0.93;;;;;;;3.72;98.84;98869.06;5187996;28;20487;-74
2024/02/24 03:36:33;;;;;;;2.90;0.63;;;;;;;3.82;99.07;98870.41;5186759;28;20030;-74
2024/02/24 03:39:04;;;;;;;3.15;1.00;;;;;;;3.88;99.11;98869.34;5188306;28;20052;-74
2024/02/24 03:41:34;;;;;;;5.28;0.80;;;;;;;3.87;98.54;98871.09;5186722;28;20116;-74
2024/02/24 03:44:04;;;;;;;8.27;0.98;;;;;;;3.88;98.94;98874.50;5177521;28;20021;-74
2024/02/24 03:46:34;;;;;;;4.38;0.80;;;;;;;3.84;98.61;98867.78;5183661;28;20030;-74
2024/02/24 03:49:05;;;;;;;3.38;0.93;;;;;;;3.79;98.36;98870.53;5186236;28;20064;-74
2024/02/24 03:51:35;;;;;;;4.68;0.70;;;;;;;3.75;98.39;98875.88;5186436;28;20076;-74
2024/02/24 03:54:05;;;;;;;4.78;1.00;;;;;;;3.71;98.58;98888.03;5187405;28;20391;-74
2024/02/24 03:56:36;;;;;;;4.80;0.90;;;;;;;3.65;99.18;98883.06;5174472;28;20079;-74
2024/02/24 03:59:06;;;;;;;2.58;0.80;;;;;;;3.65;99.54;98893.41;5176589;28;20066;-74
2024/02/24 04:01:40;;;;;;;3.88;0.80;;;;;;;3.63;99.88;98895.19;5186176;28;20025;-74
2024/02/24 04:04:10;;;;;;;2.92;0.70;;;;;;;3.63;99.66;98895.19;5187571;28;20368;-74
2024/02/24 04:09:15;;;;;;;3.78;0.90;;;;;;;3.67;99.50;98899.38;5129445;28;20098;-73
2024/02/24 04:11:46;;;;;;;3.70;0.98;;;;;;;3.68;99.39;98906.22;5135048;28;20117;-73
2024/02/24 04:14:17;;;;;;;4.95;0.70;;;;;;;3.64;99.71;98904.63;5136780;28;20042;-73
2024/02/24 04:16:47;;;;;;;3.60;0.80;;;;;;;3.63;99.39;98900.38;5137380;28;20022;-73
2024/02/24 04:19:17;;;;;;;5.43;0.85;;;;;;;3.64;99.63;98902.03;5153487;28;20149;-73
2024/02/24 04:21:48;;;;;;;3.13;0.95;;;;;;;3.62;99.68;98901.25;5152692;28;20030;-73
2024/02/24 04:24:18;;;;;;;5.75;1.10;;;;;;;3.65;100.00;98910.66;5156074;28;20419;-73
2024/02/24 04:26:49;;;;;;;3.22;0.80;;;;;;;3.60;99.93;98908.22;5155439;28;20597;-73
2024/02/24 04:29:19;;;;;;;4.78;0.88;;;;;;;3.72;100.00;98912.13;5156740;28;20045;-73
2024/02/24 04:31:49;;;;;;;1.95;0.70;;;;;;;3.81;98.75;98902.31;5138956;28;20026;-73
2024/02/24 04:34:20;;;;;;;4.97;1.02;;;;;;;3.92;97.89;98907.13;5155505;28;20034;-73
2024/02/24 04:36:50;;;;;;;3.97;0.80;;;;;;;3.89;97.20;98910.63;5156443;28;20500;-73
2024/02/24 04:39:20;;;;;;;2.78;1.05;;;;;;;3.93;97.54;98907.03;5156200;28;20351;-73
2024/02/24 04:41:51;;;;;;;3.00;0.90;;;;;;;3.88;96.93;98913.25;5156936;28;20026;-73
2024/02/24 04:44:21;;;;;;;3.75;1.10;;;;;;;3.88;97.64;98914.13;5156244;28;20374;-73
2024/02/24 04:46:51;;;;;;;5.47;1.02;;;;;;;3.86;97.28;98915.91;5156323;28;20034;-73
2024/02/24 04:49:21;;;;;;;2.90;0.80;;;;;;;3.89;97.18;98914.94;5155322;28;20120;-74
2024/02/24 04:51:52;;;;;;;5.45;0.90;;;;;;;3.83;97.43;98921.19;5156525;28;20056;-73
2024/02/24 04:54:22;;;;;;;4.28;0.73;;;;;;;3.90;97.22;98922.66;5154652;28;20480;-73
2024/02/24 04:56:52;;;;;;;3.67;0.70;;;;;;;3.88;96.91;98926.19;5157180;28;20018;-73
2024/02/24 04:59:23;;;;;;;3.38;1.00;;;;;;;3.87;97.63;98930.53;5155301;28;20022;-71
2024/02/24 05:01:53;;;;;;;4.57;1.00;;;;;;;3.79;97.48;98927.34;5155831;28;20399;-73
2024/02/24 05:04:24;;;;;;;4.82;1.20;;;;;;;3.89;97.85;98931.31;5132491;28;20034;-71
2024/02/24 05:06:54;;;;;;;5.97;1.33;;;;;;;3.81;97.89;98928.13;5146979;28;20084;-73
2024/02/24 05:09:25;;;;;;;5.63;1.20;;;;;;;3.92;96.91;98931.19;5152708;28;20045;-73
2024/02/24 05:11:55;;;;;;;2.55;0.70;;;;;;;3.87;96.69;98933.09;5152987;28;20577;-73
2024/02/24 05:14:26;;;;;;;1.58;0.80;;;;;;;3.87;96.07;98943.44;5153763;28;20488;-73
2024/02/24 05:16:56;;;;;;;5.22;0.88;;;;;;;3.89;96.92;98948.53;5154246;28;20029;-73
2024/02/24 05:19:26;;;;;;;3.88;0.65;;;;;;;3.90;96.82;98951.06;5151801;28;20033;-73
2024/02/24 05:21:57;;;;;;;3.42;0.80;;;;;;;3.86;95.99;98948.66;5157596;28;20045;-73
2024/02/24 05:24:27;;;;;;;5.85;0.80;;;;;;;3.88;96.61;98949.44;5151849;28;20030;-73
2024/02/24 05:26:58;;;;;;;4.47;0.80;;;;;;;3.73;96.61;98945.66;5146603;28;20138;-74
2024/02/24 05:29:28;;;;;;;2.50;0.75;;;;;;;3.80;96.85;98947.13;5127291;28;20022;-73
2024/02/24 05:31:58;;;;;;;6.03;1.20;;;;;;;3.66;97.02;98939.03;5146294;28;20069;-73
2024/02/24 05:34:29;;;;;;;6.60;1.02;;;;;;;3.66;97.67;98941.59;5144491;28;20027;-73
2024/02/24 05:36:59;;;;;;;3.63;0.98;;;;;;;3.73;97.39;98940.50;5128889;28;20454;-73
2024/02/24 05:39:29;;;;;;;3.25;1.30;;;;;;;3.60;97.46;98944.38;5125854;28;20022;-74
2024/02/24 05:42:00;;;;;;;3.50;1.10;;;;;;;3.61;98.27;98940.91;5143712;28;20030;-73
2024/02/24 05:44:30;;;;;;;6.20;0.80;;;;;;;3.70;98.41;98940.59;5145086;28;20138;-73
2024/02/24 05:47:00;;;;;;;6.25;1.13;;;;;;;3.59;97.97;98940.09;5145412;28;20046;-73
2024/02/24 05:49:31;;;;;;;4.13;1.30;;;;;;;3.55;97.68;98934.25;5149448;28;20076;-73
2024/02/24 05:52:02;;;;;;;3.90;0.90;;;;;;;3.58;98.80;98946.16;5146074;28;20400;-73
2024/02/24 05:54:32;;;;;;;3.67;1.08;;;;;;;3.58;99.04;98948.75;5144249;28;20057;-73
2024/02/24 05:57:04;;;;;;;3.58;0.70;;;;;;;3.58;98.51;98946.16;5128877;28;20014;-73
2024/02/24 05:59:35;;;;;;;4.10;1.00;;;;;;;3.47;97.67;98956.91;5131011;28;20034;-73
2024/02/24 06:02:05;;;;;;;1.60;0.80;;;;;;;3.39;98.10;98956.31;5128277;28;20023;-73
2024/02/24 06:04:38;;;;;;;6.38;1.00;;;;;;;3.31;98.85;98960.88;5128292;28;20481;-73
2024/02/24 06:07:08;;;;;;;5.65;1.13;;;;;;;3.44;99.87;98967.34;5135585;28;20112;-73
2024/02/24 06:09:38;;;;;;;2.58;0.70;;;;;;;3.42;98.83;98967.41;5139958;28;20058;-73
2024/02/24 06:12:09;;;;;;;2.38;0.98;;;;;;;3.50;98.69;98967.16;5130388;28;20027;-73
2024/02/24 06:14:39;;;;;;;6.88;0.93;;;;;;;3.52;98.72;98973.09;5125349;28;20038;-73
2024/02/24 06:17:09;;;;;;;12.63;1.52;;;;;;;3.49;98.18;98970.59;5130744;28;20031;-73
2024/02/24 06:19:40;;;;;;;3.45;1.00;;;;;;;3.50;97.87;98980.88;5131396;28;20026;-73
2024/02/24 06:22:10;;;;;;;2.38;0.80;;;;;;;3.55;97.95;98980.75;5131893;28;20400;-73
2024/02/24 06:24:40;;;;;;;4.90;1.20;;;;;;;3.63;98.21;98985.59;5135991;28;20205;-73
2024/02/24 06:27:11;;;;;;;2.22;0.82;;;;;;;3.59;97.68;98985.75;5134224;28;20037;-73
2024/02/24 06:29:43;;;;;;;8.95;1.00;;;;;;;3.63;97.04;98995.91;5135332;28;20118;-73
2024/02/24 06:32:14;;;;;;;5.90;0.80;;;;;;;3.65;96.68;98996.69;5133219;28;20026;-73
2024/02/24 06:34:45;;;;;;;3.13;0.80;;;;;;;3.65;97.70;99003.63;5145275;28;20117;-73
2024/02/24 06:37:15;;;;;;;2.53;0.85;;;;;;;3.54;97.47;99000.53;5131245;28;20033;-73
2024/02/24 06:39:45;;;;;;;2.15;0.82;;;;;;;3.52;98.66;98992.00;5129983;28;20033;-73
2024/02/24 06:42:16;;;;;;;2.83;0.85;;;;;;;3.53;99.29;98998.03;5145446;28;20484;-73
2024/02/24 06:44:46;;;;;;;5.63;1.25;;;;;;;3.51;99.80;99003.22;5145954;28;20592;-73
2024/02/24 06:47:17;;;;;;;3.35;0.85;;;;;;;3.75;100.00;99000.69;5135554;28;20117;-74
2024/02/24 06:49:47;;;;;;;3.47;0.70;;;;;;;3.83;99.91;98998.69;5145163;28;20062;-73
2024/02/24 06:52:17;;;;;;;4.63;0.80;;;;;;;3.80;99.61;99003.13;5133415;28;20499;-73
2024/02/24 06:54:48;;;;;;;2.33;0.85;;;;;;;3.84;99.27;99000.38;5132679;28;20029;-73
2024/02/24 06:57:18;;;;;;;4.47;0.75;;;;;;;3.99;99.87;99009.34;5135571;28;20058;-73
2024/02/24 06:59:48;;;;;;;5.43;1.20;;;;;;;4.10;99.55;99007.25;5132030;28;20338;-74
2024/02/24 07:02:19;;;;;;;5.28;1.48;;;;;;;4.29;97.91;99014.28;5135019;28;20089;-72
2024/02/24 07:04:50;;;;;;;3.13;1.00;;;;;;;4.43;98.46;99014.63;5132439;28;20421;-73
2024/02/24 07:07:20;;;;;;;6.70;0.90;;;;;;;4.48;96.53;99020.47;5149201;28;20093;-74
2024/02/24 07:09:50;;;;;;;4.30;1.13;;;;;;;4.63;96.37;99032.84;5127646;28;20500;-73
2024/02/24 07:12:21;;;;;;;5.57;1.05;;;;;;;4.72;96.12;99029.94;5133458;28;20037;-73
2024/02/24 07:14:51;;;;;;;4.30;0.90;;;;;;;4.70;96.61;99039.50;5148336;28;20416;-74
2024/02/24 07:17:21;;;;;;;2.95;1.00;;;;;;;4.80;97.07;99032.25;5129360;28;20037;-74
2024/02/24 07:19:53;;;;;;;4.05;0.90;;;;;;;5.07;97.86;99026.03;5130748;28;20184;-74
2024/02/24 07:22:23;;;;;;;5.22;1.20;;;;;;;5.16;96.39;99033.44;5129320;28;20077;-74
2024/02/24 07:24:53;;;;;;;4.82;1.02;;;;;;;5.23;95.42;99040.06;5149703;28;20023;-74
2024/02/24 07:27:24;;;;;;;4.57;0.98;;;;;;;5.40;95.00;99052.28;5133982;28;20510;-74
2024/02/24 07:29:54;;;;;;;6.40;1.20;;;;;;;5.49;94.94;99045.91;5131326;28;20572;-74
2024/02/24 07:32:24;;;;;;;2.28;0.80;;;;;;;5.62;93.60;99049.69;5129852;28;20033;-73
2024/02/24 07:34:55;;;;;;;2.85;1.05;;;;;;;5.70;93.34;99050.22;5124349;28;20465;-74
2024/02/24 07:37:25;;;;;;;3.38;0.80;;;;;;;5.85;94.04;99050.50;5129480;28;20089;-73
2024/02/24 07:39:56;;;;;;;7.32;1.60;;;;;;;5.94;93.78;99055.28;5127690;28;20181;-74
2024/02/24 07:42:26;;;;;;;8.88;1.55;;;;;;;6.29;93.81;99046.03;5129585;28;20022;-74
2024/02/24 07:44:56;;;;;;;7.10;1.45;;;;;;;6.37;91.79;99046.53;5147198;28;20117;-74
2024/02/24 07:47:27;;;;;;;5.50;1.30;;;;;;;6.53;93.02;99051.00;5131094;28;20113;-74
2024/02/24 07:49:58;;;;;;;2.95;1.10;;;;;;;6.64;91.77;99047.94;5128746;28;20131;-74
2024/02/24 07:52:28;;;;;;;3.05;1.10;;;;;;;7.58;91.25;99053.88;5130474;28;20062;-74
2024/02/24 07:54:58;;;;;;;4.15;1.13;;;;;;;7.76;87.84;99053.88;5130256;28;20294;-74
2024/02/24 07:57:29;;;;;;;4.55;1.15;;;;;;;7.72;87.22;99057.50;5133075;28;20027;-75
2024/02/24 07:59:59;;;;;;;4.63;1.20;;;;;;;7.60;86.13;99067.66;5147646;28;20034;-74
2024/02/24 08:02:29;;;;;;;7.38;1.27;;;;;;;7.49;86.46;99068.16;5132454;28;20488;-74
2024/02/24 08:05:00;;;;;;;5.30;2.08;;;;;;;7.25;87.80;99073.66;5127659;28;20097;-74
2024/02/24 08:07:31;;;;;;;7.68;1.42;;;;;;;7.20;88.13;99082.56;5128737;28;20030;-74
2024/02/24 08:10:01;;;;;;;3.40;1.30;;;;;;;7.10;89.74;99076.97;5127110;28;20038;-74
2024/02/24 08:12:31;;;;;;;4.70;1.33;;;;;;;7.26;88.58;99079.72;5145048;28;20030;-74
2024/02/24 08:15:02;;;;;;;7.75;1.58;;;;;;;7.08;89.24;99077.97;5128372;28;20484;-73
2024/02/24 08:17:32;;;;;;;4.22;1.20;;;;;;;7.16;90.27;99075.84;5126782;28;20432;-73
2024/02/24 08:20:03;;;;;;;5.60;1.38;;;;;;;7.19;91.31;99081.75;5128988;28;20074;-74
2024/02/24 08:22:34;;;;;;;8.57;1.58;;;;;;;7.16;92.13;99084.50;5144320;28;20234;-74
2024/02/24 08:25:05;;;;;;;4.68;1.60;;;;;;;7.31;92.22;99087.22;5145851;28;20022;-73
2024/02/24 08:27:35;;;;;;;8.13;1.60;;;;;;;7.39;91.09;99085.09;5129733;28;20034;-72
2024/02/24 08:30:06;;;;;;;3.25;1.30;;;;;;;7.58;92.13;99090.28;5126582;28;20023;-74
2024/02/24 08:32:36;;;;;;;2.70;1.05;;;;;;;7.61;90.43;99084.94;5131226;28;20026;-74
2024/02/24 08:35:07;;;;;;;3.75;1.20;;;;;;;7.90;89.14;99090.41;5130325;28;20084;-74
2024/02/24 08:37:39;;;;;;;5.10;1.20;;;;;;;8.09;88.50;99100.78;5133365;28;20027;-74
2024/02/24 08:40:11;;;;;;;3.28;1.27;;;;;;;8.12;84.50;99092.81;5133338;28;20035;-74
2024/02/24 08:42:41;;;;;;;4.38;1.40;;;;;;;8.43;83.56;99091.25;5134411;28;20237;-74
2024/02/24 08:45:12;;;;;;;6.40;1.50;;;;;;;8.96;82.71;99098.91;5133738;28;20396;-74
2024/02/24 08:47:42;;;;;;;8.57;1.48;;;;;;;9.22;81.16;99091.38;5147680;28;20045;-73
2024/02/24 08:50:12;;;;;;;8.10;1.27;;;;;;;9.64;77.65;99091.66;5129660;28;20041;-74
2024/02/24 08:52:43;;;;;;;4.75;1.45;;;;;;;9.20;77.34;99093.22;5114696;28;20038;-74
2024/02/24 08:55:13;;;;;;;5.70;1.00;;;;;;;9.00;79.86;99103.00;5133659;28;20137;-74
2024/02/24 08:57:43;;;;;;;1.98;0.80;;;;;;;9.17;79.52;99093.41;5130492;28;20029;-73
2024/02/24 09:00:14;;;;;;;4.25;1.02;;;;;;;9.53;78.89;99094.88;5132626;28;20470;-73
2024/02/24 09:02:45;;;;;;;2.40;1.00;;;;;;;10.33;77.75;99082.47;5132049;28;20419;-73
2024/02/24 09:05:15;;;;;;;2.92;1.02;;;;;;;11.71;72.55;99075.56;5130585;28;20035;-73
2024/02/24 09:07:46;;;;;;;3.25;1.20;;;;;;;12.39;70.85;99085.00;5131834;28;20026;-74
2024/02/24 09:10:16;;;;;;;5.85;0.95;;;;;;;12.63;69.22;99088.56;5132367;28;20069;-74
2024/02/24 09:12:46;;;;;;;2.58;1.00;;;;;;;12.44;69.65;99087.31;5130575;28;20061;-74
2024/02/24 09:15:17;;;;;;;4.05;1.08;;;;;;;11.93;70.56;99090.72;5136811;28;20038;-74
2024/02/24 09:17:47;;;;;;;2.88;1.00;;;;;;;12.12;71.67;99081.56;5134894;28;20019;-73
2024/02/24 09:20:18;;;;;;;4.43;1.05;;;;;;;11.94;72.27;99088.00;5133118;28;20500;-74
2024/02/24 09:22:49;;;;;;;2.35;0.80;;;;;;;11.86;72.00;99092.91;5132182;28;20015;-73
2024/02/24 09:25:20;;;;;;;3.92;0.93;;;;;;;11.64;72.86;99087.34;5129175;28;20042;-73
2024/02/24 09:27:51;;;;;;;2.42;0.80;;;;;;;11.51;72.14;99094.28;5129287;28;20046;-73
2024/02/24 09:30:23;;;;;;;2.22;0.77;;;;;;;10.93;73.55;99097.94;5127177;28;20038;-72
2024/02/24 09:32:54;;;;;;;2.08;0.68;;;;;;;10.46;73.19;99115.59;5130871;28;20068;-73
2024/02/24 09:35:24;;;;;;;4.47;1.08;;;;;;;10.54;74.71;99115.97;5133204;28;20066;-73
2024/02/24 09:37:54;;;;;;;2.33;0.88;;;;;;;10.21;75.54;99120.56;5130048;28;20362;-73
2024/02/24 09:40:25;;;;;;;2.28;0.63;;;;;;;10.41;75.49;99115.03;5131004;28;20062;-73
2024/02/24 09:43:05;;;;;;;3.85;1.20;;;;;;;10.34;75.84;99125.91;5131294;28;20081;-73
2024/02/24 09:45:41;;;;;;;3.28;1.10;;;;;;;10.29;74.95;99127.94;5130333;28;20436;-73
2024/02/24 09:48:12;;;;;;;4.55;1.25;;;;;;;9.67;76.53;99138.44;5130387;28;20069;-72
2024/02/24 09:50:43;;;;;;;2.25;1.00;;;;;;;9.87;75.99;99130.34;5133335;28;20567;-72
2024/02/24 09:53:13;;;;;;;3.80;0.88;;;;;;;9.91;77.18;99130.09;5132342;28;20026;-71
2024/02/24 09:55:44;;;;;;;2.97;1.08;;;;;;;9.88;76.38;99138.09;5131281;28;20526;-71
2024/02/24 09:58:15;;;;;;;3.35;0.90;;;;;;;9.98;77.15;99143.66;5136293;28;20074;-73
2024/02/24 10:00:50;;;;;;;3.25;1.20;;;;;;;9.87;77.36;99156.44;5137955;28;20097;-73
2024/02/24 10:03:21;;;;;;;5.22;1.48;;;;;;;9.63;77.33;99158.63;5132813;28;20450;-73
2024/02/24 10:05:52;;;;;;;4.35;1.20;;;;;;;9.71;77.37;99166.03;5136504;28;20034;-73
2024/02/24 10:08:24;;;;;;;3.30;1.20;;;;;;;9.81;77.77;99167.22;5194866;23;20051;-75
2024/02/24 10:10:55;;;;;;;5.55;1.33;;;;;;;9.88;77.67;99169.41;5206790;28;20024;-75
2024/02/24 10:13:25;;;;;;;6.18;0.95;;;;;;;9.93;77.12;99174.34;5212365;28;20032;-75
2024/02/24 10:15:56;;;;;;;2.45;0.90;;;;;;;9.96;77.09;99176.81;5213619;28;20433;-75
2024/02/24 10:18:26;;;;;;;3.47;1.00;;;;;;;9.89;77.41;99185.88;5196226;28;20041;-75
2024/02/24 10:20:57;;;;;;;3.90;1.02;;;;;;;10.02;77.75;99179.94;5189209;28;20087;-74
2024/02/24 10:23:27;;;;;;;4.93;1.10;;;;;;;10.05;76.56;99189.38;5189685;28;20041;-74
2024/02/24 10:25:58;;;;;;;4.40;0.90;;;;;;;10.50;76.24;99168.50;5189317;28;20013;-74
2024/02/24 10:28:29;;;;;;;2.63;0.90;;;;;;;10.91;75.89;99164.31;5193088;28;20047;-75
2024/02/24 10:31:00;;;;;;;2.35;0.65;;;;;;;11.28;73.70;99165.44;5189790;28;20501;-75
2024/02/24 10:33:31;;;;;;;1.48;0.70;;;;;;;11.15;73.82;99164.53;5190266;28;20047;-75
2024/02/24 10:36:02;;;;;;;1.17;0.47;;;;;;;11.12;71.88;99159.47;5195359;28;20402;-75
2024/02/24 10:38:36;;;;;;;2.03;0.60;;;;;;;11.05;72.46;99173.00;5172396;28;20038;-75
2024/02/24 10:41:09;;;;;;;3.70;0.75;;;;;;;10.84;70.54;99163.81;5188155;28;20080;-75
2024/02/24 10:43:41;;;;;;;2.88;0.57;;;;;;;10.55;71.25;99167.28;5186457;28;20037;-75
2024/02/24 10:46:11;;;;;;;2.75;0.60;;;;;;;10.62;71.83;99175.63;5184458;28;20060;-74
2024/02/24 10:48:42;;;;;;;3.42;0.57;;;;;;;10.87;71.94;99173.28;5189893;28;20041;-75
2024/02/24 10:51:13;;;;;;;2.47;0.63;;;;;;;11.29;71.66;99177.59;5189954;28;20025;-74
2024/02/24 10:53:51;;;;;;;3.05;0.90;;;;;;;11.66;70.50;99171.84;5185230;28;20518;-74
2024/02/24 10:56:22;;;;;;;1.98;0.68;;;;;;;11.88;68.99;99166.94;5189923;28;20110;-75
2024/02/24 10:59:08;;;;;;;1.98;0.70;;;;;;;11.96;69.53;99151.56;5179506;28;20045;-75
2024/02/24 11:01:45;;;;;;;1.23;0.70;;;;;;;11.60;69.99;99163.53;5189582;28;20025;-75
2024/02/24 11:04:16;;;;;;;3.40;0.50;;;;;;;11.72;70.46;99174.06;5207981;28;20051;-74
2024/02/24 11:06:52;;;;;;;2.33;0.63;;;;;;;11.79;70.96;99171.91;5192076;28;20025;-75
2024/02/24 11:09:25;;;;;;;2.15;0.52;;;;;;;11.42;68.37;99182.94;5191999;28;20040;-74
2024/02/24 11:12:03;;;;;;;1.40;0.60;;;;;;;11.70;69.78;99175.09;5186266;28;20335;-75
2024/02/24 11:14:38;;;;;;;2.95;0.63;;;;;;;11.66;68.14;99177.06;5190536;28;20037;-75
2024/02/24 11:17:33;;;;;;;2.75;0.60;;;;;;;11.49;66.97;99172.00;5189939;28;20013;-74
2024/02/24 11:20:04;;;;;;;1.92;0.60;;;;;;;11.38;67.45;99179.66;5189092;28;20028;-75
2024/02/24 11:22:34;;;;;;;1.88;0.75;;;;;;;11.48;67.43;99162.44;5193310;28;20091;-75
2024/02/24 11:25:05;;;;;;;0.98;0.50;;;;;;;11.62;68.18;99170.31;5210633;28;20048;-75
2024/02/24 11:27:37;;;;;;;1.95;0.70;;;;;;;11.56;66.58;99168.09;5193606;28;20021;-75
2024/02/24 11:30:35;;;;;;;1.27;0.50;;;;;;;11.55;66.67;99179.47;5188476;28;20072;-75
2024/02/24 11:33:27;;;;;;;2.05;0.50;;;;;;;11.65;67.62;99177.97;5192792;28;20029;-75
2024/02/24 11:36:00;;;;;;;3.10;0.60;;;;;;;11.51;66.44;99182.38;5192718;28;20032;-75
2024/02/24 11:38:31;;;;;;;2.15;0.68;;;;;;;11.46;66.83;99169.56;5190826;28;20061;-75
2024/02/24 11:41:05;;;;;;;1.92;0.60;;;;;;;11.63;68.36;99173.81;5175770;28;20037;-75
2024/02/24 11:43:35;;;;;;;1.70;0.50;;;;;;;11.85;68.67;99172.38;5175759;28;20390;-75
2024/02/24 11:46:06;;;;;;;2.40;0.52;;;;;;;12.19;68.64;99158.81;5190423;28;20038;-75
2024/02/24 11:48:36;;;;;;;2.60;0.55;;;;;;;12.25;69.31;99171.50;5188635;28;20036;-75
2024/02/24 11:51:07;;;;;;;2.88;0.68;;;;;;;11.97;67.51;99174.19;5192722;28;20128;-75
2024/02/24 11:53:37;;;;;;;0.88;0.50;;;;;;;11.69;68.13;99191.72;5189966;28;20037;-74
2024/02/24 11:56:07;;;;;;;2.53;0.52;;;;;;;11.58;69.20;99187.16;5187186;28;20036;-74
2024/02/24 11:58:38;;;;;;;1.90;0.50;;;;;;;11.10;68.53;99184.88;5182722;28;20033;-75